Time;durP1;ratioP1;P1;durP2;ratioP2;P2;SDS_P1;SDS_P2;PMS_P1;PMS_P2;Temp;Humidity;BMP_temperature;BMP_pressure;BME280_temperature;BME280_humidity;BME280_pressure;Samples;Min_cycle;Max_cycle;Signal;HPM_P1;HPM_P2
2023/12/31 00:01:43;;;;;;;5.50;4.63;;;;;;;2.52;100.00;96901.69;5033439;28;20461;-80
2023/12/31 00:04:09;;;;;;;5.35;4.60;;;;;;;2.50;100.00;96892.47;5021529;28;20424;-83
2023/12/31 00:06:35;;;;;;;5.80;4.70;;;;;;;2.47;100.00;96893.69;5016449;28;20415;-80
2023/12/31 00:09:01;;;;;;;5.65;4.78;;;;;;;2.44;100.00;96888.88;5019042;28;20761;-80
2023/12/31 00:11:27;;;;;;;7.15;5.10;;;;;;;2.43;100.00;96878.66;5035252;28;20426;-80
2023/12/31 00:13:53;;;;;;;6.38;4.85;;;;;;;2.42;100.00;96877.84;5024686;28;21017;-79
2023/12/31 00:16:21;;;;;;;7.50;5.50;;;;;;;2.38;100.00;96871.47;5041153;28;20917;-79
2023/12/31 00:18:47;;;;;;;7.20;5.18;;;;;;;2.37;100.00;96863.81;5043876;28;20400;-79
2023/12/31 00:21:13;;;;;;;6.18;5.25;;;;;;;2.33;100.00;96851.19;5033787;28;20433;-79
2023/12/31 00:23:39;;;;;;;7.03;4.85;;;;;;;2.34;100.00;96851.97;5022313;28;20484;-78
2023/12/31 00:26:05;;;;;;;7.45;5.22;;;;;;;2.33;100.00;96850.41;5022265;28;20397;-79
2023/12/31 00:28:32;;;;;;;5.20;4.68;;;;;;;2.33;100.00;96851.19;5036824;28;20406;-79
2023/12/31 00:30:58;;;;;;;6.40;5.30;;;;;;;2.32;100.00;96843.59;5042025;28;20495;-79
2023/12/31 00:33:25;;;;;;;5.70;4.70;;;;;;;2.32;100.00;96841.78;5042688;28;20798;-79
2023/12/31 00:35:51;;;;;;;6.30;5.47;;;;;;;2.31;100.00;96834.13;5028456;28;20412;-79
2023/12/31 00:38:17;;;;;;;6.57;5.57;;;;;;;2.30;100.00;96827.31;5005120;28;20469;-79
2023/12/31 00:40:44;;;;;;;7.22;5.57;;;;;;;2.28;100.00;96832.75;5004065;28;20414;-79
2023/12/31 00:43:10;;;;;;;8.90;6.43;;;;;;;2.30;100.00;96840.38;5003999;28;20485;-78
2023/12/31 00:45:36;;;;;;;8.15;6.30;;;;;;;2.26;100.00;96844.41;5005091;28;20774;-79
2023/12/31 00:48:02;;;;;;;7.90;5.60;;;;;;;2.25;100.00;96830.56;5014525;28;20444;-79
2023/12/31 00:50:30;;;;;;;5.85;5.15;;;;;;;2.22;100.00;96819.75;5022568;28;20481;-79
2023/12/31 00:52:56;;;;;;;6.33;5.37;;;;;;;2.20;100.00;96819.94;5022379;28;20443;-79
2023/12/31 00:55:22;;;;;;;5.78;4.90;;;;;;;2.17;100.00;96812.56;5032775;28;20627;-79
2023/12/31 00:57:48;;;;;;;6.28;5.07;;;;;;;2.16;100.00;96817.97;5043733;28;20403;-79
2023/12/31 01:00:15;;;;;;;6.43;4.95;;;;;;;2.13;100.00;96821.81;5037171;28;20411;-78
2023/12/31 01:02:41;;;;;;;6.50;5.38;;;;;;;2.09;100.00;96809.41;5040625;28;20871;-78
2023/12/31 01:05:08;;;;;;;7.13;5.47;;;;;;;2.08;100.00;96810.41;5040861;28;20418;-79
2023/12/31 01:07:35;;;;;;;6.93;5.90;;;;;;;2.03;100.00;96800.56;5021886;28;20400;-78
2023/12/31 01:10:03;;;;;;;10.00;6.10;;;;;;;2.03;100.00;96800.56;5024955;28;20467;-79
2023/12/31 01:12:29;;;;;;;7.00;5.75;;;;;;;1.99;100.00;96799.41;5025332;28;20463;-78
2023/12/31 01:14:55;;;;;;;8.77;6.32;;;;;;;1.98;100.00;96797.81;5040064;28;20427;-79
2023/12/31 01:17:21;;;;;;;6.20;5.25;;;;;;;1.95;100.00;96799.03;5039934;28;20395;-78
2023/12/31 01:19:47;;;;;;;6.70;5.30;;;;;;;1.94;100.00;96789.63;5036608;28;20815;-78
2023/12/31 01:22:13;;;;;;;6.17;5.50;;;;;;;1.92;100.00;96789.03;5020234;28;20871;-78
2023/12/31 01:24:41;;;;;;;6.43;5.45;;;;;;;1.93;100.00;96795.03;5019961;28;20435;-79
2023/12/31 01:27:07;;;;;;;6.90;5.78;;;;;;;1.93;100.00;96784.59;5025681;28;20398;-79
2023/12/31 01:29:36;;;;;;;8.82;5.70;;;;;;;1.92;100.00;96786.41;5041711;28;20478;-80
2023/12/31 01:32:02;;;;;;;6.65;5.85;;;;;;;1.95;100.00;96779.97;5028696;28;20519;-80
2023/12/31 01:34:29;;;;;;;7.88;5.72;;;;;;;1.94;100.00;96778.38;5041939;28;20486;-78
2023/12/31 01:36:55;;;;;;;7.72;6.00;;;;;;;1.94;100.00;96765.31;5034614;28;20474;-79
2023/12/31 01:39:21;;;;;;;7.20;5.70;;;;;;;1.94;100.00;96760.09;5033690;28;20407;-80
2023/12/31 01:41:49;;;;;;;7.43;6.20;;;;;;;1.93;100.00;96755.91;5021440;28;20415;-79
2023/12/31 01:44:15;;;;;;;7.43;5.82;;;;;;;1.91;100.00;96753.50;5021517;28;20461;-78
2023/12/31 01:46:41;;;;;;;7.38;6.03;;;;;;;1.93;100.00;96748.06;5021188;28;20397;-79
2023/12/31 01:49:09;;;;;;;7.07;5.63;;;;;;;1.91;100.00;96748.28;5021667;28;20451;-79
2023/12/31 01:51:35;;;;;;;8.52;6.07;;;;;;;1.92;100.00;96742.03;5020474;28;20415;-78
2023/12/31 01:54:04;;;;;;;7.25;6.03;;;;;;;1.91;100.00;96743.06;5028384;28;20407;-79
2023/12/31 01:56:33;;;;;;;7.35;5.78;;;;;;;1.90;100.00;96736.22;5039524;28;20403;-79
2023/12/31 01:59:03;;;;;;;7.18;5.78;;;;;;;1.92;100.00;96738.63;5039857;28;20879;-78
2023/12/31 02:01:30;;;;;;;6.53;5.63;;;;;;;1.92;100.00;96738.63;5038551;28;20948;-80
2023/12/31 02:03:56;;;;;;;7.00;6.00;;;;;;;1.94;100.00;96734.81;5037664;28;20507;-80
2023/12/31 02:06:22;;;;;;;9.60;6.03;;;;;;;1.94;100.00;96731.41;5032723;28;20412;-79
2023/12/31 02:08:48;;;;;;;6.35;5.55;;;;;;;1.94;100.00;96723.56;5022860;28;20488;-79
2023/12/31 02:11:16;;;;;;;9.75;6.40;;;;;;;1.93;100.00;96727.19;5034849;28;20402;-80
2023/12/31 02:13:42;;;;;;;8.33;6.03;;;;;;;1.94;100.00;96724.38;5041873;28;20462;-81
2023/12/31 02:16:14;;;;;;;8.27;5.88;;;;;;;1.95;100.00;96719.94;5042621;28;20409;-81
2023/12/31 02:18:40;;;;;;;9.13;6.25;;;;;;;1.96;100.00;96718.91;5024777;28;20495;-80
2023/12/31 02:21:07;;;;;;;9.60;6.38;;;;;;;1.93;100.00;96717.56;5024505;28;20931;-80
2023/12/31 02:23:34;;;;;;;7.25;6.00;;;;;;;1.93;100.00;96717.56;5024005;28;20492;-80
2023/12/31 02:26:06;;;;;;;7.90;6.25;;;;;;;1.97;100.00;96717.09;5024438;28;20415;-80
2023/12/31 02:28:33;;;;;;;7.43;5.70;;;;;;;1.97;100.00;96717.09;5024206;28;20446;-80
2023/12/31 02:30:59;;;;;;;9.25;6.20;;;;;;;1.98;100.00;96703.84;5023438;28;20428;-80
2023/12/31 02:33:25;;;;;;;7.00;5.50;;;;;;;2.01;100.00;96698.22;5023460;28;20439;-80
2023/12/31 02:35:51;;;;;;;7.00;5.13;;;;;;;2.02;100.00;96699.00;5032457;28;20403;-81
2023/12/31 02:38:17;;;;;;;6.63;5.78;;;;;;;2.08;100.00;96693.72;5023596;28;20397;-80
2023/12/31 02:40:44;;;;;;;6.60;5.40;;;;;;;2.13;100.00;96682.63;5023335;28;20393;-79
2023/12/31 02:43:11;;;;;;;6.85;5.43;;;;;;;2.22;100.00;96676.13;5023539;28;20742;-80
2023/12/31 02:45:38;;;;;;;7.57;5.60;;;;;;;2.28;100.00;96670.84;5002786;28;20819;-80
2023/12/31 02:48:05;;;;;;;7.30;5.13;;;;;;;2.39;100.00;96661.50;5004784;28;20444;-79
2023/12/31 02:50:31;;;;;;;6.70;5.38;;;;;;;2.47;100.00;96661.22;5003842;28;20448;-79
2023/12/31 02:52:57;;;;;;;6.43;5.32;;;;;;;2.55;100.00;96657.53;5007750;28;20858;-80
2023/12/31 02:55:23;;;;;;;6.60;5.27;;;;;;;2.63;100.00;96655.41;5025932;28;20412;-80
2023/12/31 02:57:50;;;;;;;6.05;4.85;;;;;;;2.70;100.00;96644.88;5027093;28;20404;-80
2023/12/31 03:00:18;;;;;;;5.32;4.75;;;;;;;2.80;100.00;96641.75;5025161;28;20400;-80
2023/12/31 03:02:44;;;;;;;6.20;4.80;;;;;;;2.85;100.00;96636.66;5033950;28;20485;-80
2023/12/31 03:05:12;;;;;;;6.72;4.68;;;;;;;2.92;100.00;96621.69;5028808;28;20400;-80
2023/12/31 03:07:38;;;;;;;4.88;4.38;;;;;;;2.97;100.00;96616.59;5042166;28;20444;-80
2023/12/31 03:10:06;;;;;;;5.95;4.38;;;;;;;3.04;100.00;96605.03;5042738;28;20399;-80
2023/12/31 03:12:32;;;;;;;4.60;3.90;;;;;;;3.10;100.00;96605.94;5042531;28;20821;-79
2023/12/31 03:14:58;;;;;;;5.55;3.90;;;;;;;3.15;100.00;96600.88;5040039;28;20743;-80
2023/12/31 03:17:25;;;;;;;4.20;3.80;;;;;;;3.20;100.00;96597.56;5023116;28;20557;-80
2023/12/31 03:19:52;;;;;;;4.18;3.78;;;;;;;3.23;100.00;96599.75;5022163;28;20405;-80
2023/12/31 03:22:18;;;;;;;4.28;3.88;;;;;;;3.27;100.00;96598.28;5022517;28;20401;-80
2023/12/31 03:24:44;;;;;;;3.92;3.53;;;;;;;3.31;100.00;96599.41;5022221;28;20428;-80
2023/12/31 03:27:11;;;;;;;4.90;4.00;;;;;;;3.35;100.00;96600.56;5023427;28;20405;-80
2023/12/31 03:29:37;;;;;;;3.97;3.58;;;;;;;3.37;100.00;96588.88;5023341;28;20397;-80
2023/12/31 03:32:04;;;;;;;4.28;3.50;;;;;;;3.42;100.00;96586.38;5027556;28;20403;-80
2023/12/31 03:34:31;;;;;;;3.88;3.47;;;;;;;3.44;100.00;96584.34;5045989;28;20407;-80
2023/12/31 03:36:58;;;;;;;3.60;3.30;;;;;;;3.47;100.00;96583.84;5047382;28;20399;-80
2023/12/31 03:39:24;;;;;;;3.60;3.25;;;;;;;3.49;100.00;96576.59;5046635;28;20399;-80
2023/12/31 03:41:50;;;;;;;4.40;3.35;;;;;;;3.50;100.00;96572.97;5045229;28;21042;-79
2023/12/31 03:44:16;;;;;;;4.38;3.85;;;;;;;3.49;100.00;96573.97;5032598;28;20412;-80
2023/12/31 03:46:44;;;;;;;3.88;3.40;;;;;;;3.48;100.00;96569.75;5025743;28;20812;-79
2023/12/31 03:49:10;;;;;;;4.30;3.60;;;;;;;3.48;100.00;96561.91;5026585;28;20415;-80
2023/12/31 03:51:38;;;;;;;4.22;3.50;;;;;;;3.49;100.00;96560.09;5026333;28;20401;-80
2023/12/31 03:54:05;;;;;;;3.95;3.42;;;;;;;3.50;100.00;96557.25;5025348;28;20407;-79
2023/12/31 03:56:31;;;;;;;4.88;3.72;;;;;;;3.51;100.00;96555.44;5034711;28;20403;-81
2023/12/31 03:58:58;;;;;;;3.55;3.25;;;;;;;3.51;100.00;96555.44;5043988;28;20399;-80
2023/12/31 04:01:24;;;;;;;4.10;3.35;;;;;;;3.46;100.00;96543.03;5040041;28;20418;-80
2023/12/31 04:03:50;;;;;;;5.20;3.40;;;;;;;3.43;100.00;96547.94;5027317;28;20421;-80
2023/12/31 04:06:16;;;;;;;3.40;3.10;;;;;;;3.35;100.00;96537.78;5035055;28;20397;-80
2023/12/31 04:08:43;;;;;;;3.95;3.35;;;;;;;3.27;100.00;96536.31;5037288;28;20393;-80
2023/12/31 04:11:10;;;;;;;4.53;3.85;;;;;;;3.21;100.00;96533.78;5036552;28;20450;-80
2023/12/31 04:13:36;;;;;;;3.70;3.40;;;;;;;3.15;100.00;96527.66;5034876;28;20464;-80
2023/12/31 04:16:03;;;;;;;5.35;3.90;;;;;;;3.11;100.00;96522.06;5034469;28;20409;-80
2023/12/31 04:18:29;;;;;;;7.43;4.53;;;;;;;3.07;100.00;96507.88;5028422;28;20409;-80
2023/12/31 04:20:55;;;;;;;4.35;3.90;;;;;;;3.05;100.00;96507.28;5024594;28;20445;-80
2023/12/31 04:23:23;;;;;;;4.32;3.78;;;;;;;3.02;100.00;96497.25;5025145;28;20444;-80
2023/12/31 04:25:51;;;;;;;5.10;3.80;;;;;;;3.01;100.00;96505.31;5026496;28;20523;-79
2023/12/31 04:28:17;;;;;;;5.85;4.07;;;;;;;2.96;100.00;96506.00;5025206;28;20397;-79
2023/12/31 04:30:43;;;;;;;5.75;4.53;;;;;;;2.92;100.00;96501.47;5023025;28;20431;-80
2023/12/31 04:33:10;;;;;;;5.60;4.40;;;;;;;2.91;100.00;96505.09;5025466;28;20404;-80
2023/12/31 04:35:36;;;;;;;5.47;4.10;;;;;;;2.89;100.00;96502.69;5025101;28;20751;-80
2023/12/31 04:38:02;;;;;;;5.70;4.40;;;;;;;2.89;100.00;96500.09;5039146;28;20391;-79
2023/12/31 04:40:29;;;;;;;4.50;4.05;;;;;;;2.88;100.00;96488.03;5044851;28;20399;-80
2023/12/31 04:42:56;;;;;;;5.00;4.30;;;;;;;2.87;100.00;96481.22;5045027;28;20417;-80
2023/12/31 04:45:22;;;;;;;5.10;4.30;;;;;;;2.87;100.00;96478.59;5044811;28;20445;-80
2023/12/31 04:47:48;;;;;;;6.13;4.73;;;;;;;2.86;100.00;96478.81;5037011;28;20452;-80
2023/12/31 04:50:15;;;;;;;5.35;4.30;;;;;;;2.83;100.00;96474.84;5029453;28;20411;-80
2023/12/31 04:52:41;;;;;;;5.00;4.20;;;;;;;2.80;100.00;96470.06;5026075;28;20405;-80
2023/12/31 04:55:08;;;;;;;5.05;4.10;;;;;;;2.79;100.00;96472.88;5024489;28;20408;-80
2023/12/31 04:57:34;;;;;;;5.05;4.15;;;;;;;2.76;100.00;96473.34;5025156;28;20400;-79
2023/12/31 05:00:02;;;;;;;4.65;4.10;;;;;;;2.72;100.00;96473.78;5030396;28;20403;-80
2023/12/31 05:02:29;;;;;;;6.20;4.35;;;;;;;2.70;100.00;96467.22;5044307;28;20429;-80
2023/12/31 05:04:55;;;;;;;5.28;4.07;;;;;;;2.67;100.00;96458.00;5025567;28;20433;-79
2023/12/31 05:07:21;;;;;;;5.55;4.18;;;;;;;2.66;100.00;96458.22;5040491;28;20414;-80
2023/12/31 05:09:47;;;;;;;4.97;4.10;;;;;;;2.65;100.00;96457.41;5032126;28;20962;-79
2023/12/31 05:12:13;;;;;;;5.97;4.57;;;;;;;2.64;100.00;96461.03;5024713;28;20500;-79
2023/12/31 05:14:39;;;;;;;4.38;3.80;;;;;;;2.66;100.00;96463.44;5023976;28;20863;-79
2023/12/31 05:17:07;;;;;;;4.50;4.10;;;;;;;2.68;100.00;96461.41;5026782;28;20465;-80
2023/12/31 05:19:33;;;;;;;4.20;3.80;;;;;;;2.67;100.00;96454.59;5041884;28;20407;-79
2023/12/31 05:21:59;;;;;;;6.75;4.30;;;;;;;2.67;100.00;96460.63;5024373;28;20416;-79
2023/12/31 05:24:25;;;;;;;4.90;4.40;;;;;;;2.68;100.00;96464.03;5032991;28;20429;-79
2023/12/31 05:26:51;;;;;;;4.47;4.07;;;;;;;2.68;100.00;96458.78;5024106;28;20881;-79
2023/12/31 05:29:18;;;;;;;4.68;3.72;;;;;;;2.66;100.00;96448.56;5024612;28;20535;-79
2023/12/31 05:31:44;;;;;;;5.60;4.22;;;;;;;2.66;100.00;96450.38;5025039;28;20439;-79
2023/12/31 05:34:11;;;;;;;5.05;4.10;;;;;;;2.67;100.00;96444.13;5024996;28;20747;-79
2023/12/31 05:36:39;;;;;;;4.22;3.83;;;;;;;2.66;100.00;96435.50;5027164;28;20457;-80
2023/12/31 05:39:05;;;;;;;4.28;3.88;;;;;;;2.66;100.00;96429.47;5025157;28;20408;-79
2023/12/31 05:41:31;;;;;;;6.30;4.03;;;;;;;2.65;100.00;96427.88;5024253;28;20440;-79
2023/12/31 05:43:57;;;;;;;6.07;4.15;;;;;;;2.62;100.00;96425.72;5026020;28;20563;-79
2023/12/31 05:46:23;;;;;;;6.00;4.10;;;;;;;2.61;100.00;96421.53;5043978;28;20391;-79
2023/12/31 05:48:50;;;;;;;5.07;4.30;;;;;;;2.59;100.00;96408.69;5043905;28;20462;-79
2023/12/31 05:51:17;;;;;;;4.40;3.95;;;;;;;2.56;100.00;96414.34;5042876;28;20795;-80
2023/12/31 05:53:43;;;;;;;4.75;4.25;;;;;;;2.57;100.00;96421.16;5043630;28;20410;-79
2023/12/31 05:56:09;;;;;;;4.57;4.07;;;;;;;2.57;100.00;96422.97;5028986;28;20401;-79
2023/12/31 05:58:35;;;;;;;5.60;4.25;;;;;;;2.58;100.00;96425.38;5023099;28;20431;-79
2023/12/31 06:01:02;;;;;;;4.93;3.92;;;;;;;2.59;100.00;96416.53;5026707;28;20504;-79
2023/12/31 06:03:28;;;;;;;4.47;3.80;;;;;;;2.62;100.00;96417.91;5033701;28;20491;-79
2023/12/31 06:05:55;;;;;;;4.30;3.55;;;;;;;2.62;100.00;96408.25;5023793;28;20420;-79
2023/12/31 06:08:22;;;;;;;4.68;3.67;;;;;;;2.63;100.00;96401.97;5037518;28;20401;-79
2023/12/31 06:10:48;;;;;;;3.97;3.38;;;;;;;2.66;100.00;96382.44;5036217;28;20434;-79
2023/12/31 06:13:14;;;;;;;4.38;3.78;;;;;;;2.69;100.00;96376.78;5047624;28;20399;-79
2023/12/31 06:15:40;;;;;;;4.35;3.60;;;;;;;2.71;100.00;96377.34;5037722;28;20401;-80
2023/12/31 06:18:07;;;;;;;4.70;3.85;;;;;;;2.74;100.00;96395.19;5033162;28;20399;-80
2023/12/31 06:20:33;;;;;;;4.72;3.90;;;;;;;2.78;100.00;96408.59;5042375;28;20398;-80
2023/12/31 06:22:59;;;;;;;4.78;4.00;;;;;;;2.82;100.00;96400.09;5033582;28;20409;-78
2023/12/31 06:25:27;;;;;;;5.23;4.17;;;;;;;2.94;100.00;96398.25;5022174;28;20469;-79
2023/12/31 06:27:54;;;;;;;5.10;3.78;;;;;;;3.07;100.00;96387.59;5022669;28;20454;-79
2023/12/31 06:30:20;;;;;;;5.13;3.72;;;;;;;3.30;100.00;96391.22;5022114;28;20885;-79
2023/12/31 06:32:46;;;;;;;3.63;3.28;;;;;;;3.42;100.00;96405.88;5022255;28;20409;-79
2023/12/31 06:35:13;;;;;;;4.70;3.40;;;;;;;3.44;100.00;96388.13;5024223;28;20835;-79
2023/12/31 06:37:39;;;;;;;5.10;3.78;;;;;;;3.44;100.00;96389.94;5021684;28;20388;-80
2023/12/31 06:40:08;;;;;;;4.75;3.47;;;;;;;3.58;100.00;96390.50;5022077;28;20400;-79
2023/12/31 06:42:35;;;;;;;4.10;3.50;;;;;;;3.72;100.00;96405.69;5008535;28;20417;-80
2023/12/31 06:45:01;;;;;;;3.72;3.28;;;;;;;3.84;100.00;96392.56;5026004;28;20792;-79
2023/12/31 06:47:28;;;;;;;3.67;3.25;;;;;;;3.90;100.00;96389.03;5041445;28;20823;-79
2023/12/31 06:49:54;;;;;;;4.18;3.45;;;;;;;3.98;100.00;96395.72;5041591;28;20456;-79
2023/12/31 06:52:20;;;;;;;4.80;3.42;;;;;;;4.02;100.00;96400.25;5041615;28;20399;-79
2023/12/31 06:54:46;;;;;;;6.72;3.50;;;;;;;4.06;100.00;96398.75;5037172;28;20946;-80
2023/12/31 06:57:13;;;;;;;4.63;3.70;;;;;;;4.12;100.00;96394.41;5004898;28;20395;-79
2023/12/31 06:59:40;;;;;;;4.10;3.50;;;;;;;4.10;100.00;96397.28;5020165;28;20503;-80
2023/12/31 07:02:06;;;;;;;4.13;3.40;;;;;;;4.16;100.00;96409.41;5024332;28;20399;-79
2023/12/31 07:04:32;;;;;;;4.50;3.60;;;;;;;4.21;100.00;96395.66;5030252;28;20411;-80
2023/12/31 07:06:58;;;;;;;4.05;3.17;;;;;;;4.31;100.00;96402.88;5023150;28;20399;-79
2023/12/31 07:09:25;;;;;;;3.93;3.53;;;;;;;4.33;100.00;96408.66;5035691;28;20463;-80
2023/12/31 07:11:51;;;;;;;3.58;3.20;;;;;;;4.42;100.00;96407.25;5047444;28;20410;-81
2023/12/31 07:14:17;;;;;;;4.03;3.23;;;;;;;4.45;100.00;96419.88;5049425;28;20409;-78
2023/12/31 07:16:44;;;;;;;4.47;3.00;;;;;;;4.40;100.00;96427.66;5045287;28;20426;-80
2023/12/31 07:19:10;;;;;;;4.57;3.10;;;;;;;4.40;100.00;96411.94;5038573;28;20434;-79
2023/12/31 07:21:37;;;;;;;3.35;3.03;;;;;;;4.44;100.00;96426.94;5033059;28;20465;-79
2023/12/31 07:24:03;;;;;;;4.03;3.13;;;;;;;4.49;100.00;96428.88;5036310;28;20449;-79
2023/12/31 07:26:29;;;;;;;3.45;3.03;;;;;;;4.45;100.00;96435.59;5040249;28;20401;-81
2023/12/31 07:28:56;;;;;;;4.47;3.50;;;;;;;4.41;100.00;96419.56;5034379;28;20412;-79
2023/12/31 07:31:22;;;;;;;6.70;3.80;;;;;;;4.43;100.00;96425.38;5018844;28;20801;-78
2023/12/31 07:33:52;;;;;;;4.30;3.55;;;;;;;4.52;100.00;96420.53;5019452;28;20408;-78
2023/12/31 07:36:18;;;;;;;4.85;3.42;;;;;;;4.56;100.00;96422.47;5025110;28;20399;-78
2023/12/31 07:38:45;;;;;;;4.80;3.80;;;;;;;4.57;100.00;96429.28;5038234;28;20395;-79
2023/12/31 07:41:12;;;;;;;3.90;3.50;;;;;;;4.61;100.00;96426.97;5023182;28;20401;-79
2023/12/31 07:43:39;;;;;;;3.80;3.40;;;;;;;4.66;100.00;96434.94;5018874;28;20471;-79
2023/12/31 07:46:05;;;;;;;3.50;3.20;;;;;;;4.71;100.00;96435.03;5018837;28;20455;-78
2023/12/31 07:48:32;;;;;;;4.65;3.55;;;;;;;4.75;100.00;96440.56;5017611;28;20432;-78
2023/12/31 07:51:03;;;;;;;4.20;3.55;;;;;;;4.76;100.00;96439.53;5019148;28;20758;-79
2023/12/31 07:53:30;;;;;;;3.55;2.97;;;;;;;4.76;100.00;96423.81;5018897;28;20483;-79
2023/12/31 07:55:56;;;;;;;3.30;2.90;;;;;;;4.73;100.00;96422.47;5019230;28;20480;-79
2023/12/31 07:58:24;;;;;;;2.95;2.63;;;;;;;4.71;100.00;96429.78;5019919;28;20404;-79
2023/12/31 08:00:50;;;;;;;3.00;2.70;;;;;;;4.68;100.00;96419.75;5022771;28;20411;-79
2023/12/31 08:03:17;;;;;;;3.05;2.65;;;;;;;4.63;100.00;96412.63;5024009;28;20408;-78
2023/12/31 08:05:43;;;;;;;3.00;2.70;;;;;;;4.59;100.00;96411.47;5017058;28;20403;-78
2023/12/31 08:08:12;;;;;;;2.88;2.30;;;;;;;4.55;100.00;96413.00;5021242;28;20412;-80
2023/12/31 08:10:40;;;;;;;2.42;2.22;;;;;;;4.53;100.00;96416.88;5018954;28;20769;-79
2023/12/31 08:13:07;;;;;;;2.35;2.15;;;;;;;4.52;100.00;96410.03;5023035;28;20421;-79
2023/12/31 08:15:34;;;;;;;2.63;2.35;;;;;;;4.51;100.00;96413.72;5024216;28;20432;-79
2023/12/31 08:18:00;;;;;;;2.95;2.50;;;;;;;4.52;100.00;96404.81;5022309;28;20401;-79
2023/12/31 08:20:26;;;;;;;2.38;2.17;;;;;;;4.50;100.00;96405.06;5032199;28;20899;-80
2023/12/31 08:22:52;;;;;;;2.60;2.40;;;;;;;4.50;100.00;96406.88;5046021;28;20406;-80
2023/12/31 08:25:20;;;;;;;2.83;2.30;;;;;;;4.49;100.00;96406.09;5036428;28;20523;-80
2023/12/31 08:27:46;;;;;;;2.90;2.30;;;;;;;4.50;100.00;96404.25;5038875;28;20410;-81
2023/12/31 08:30:12;;;;;;;2.40;2.20;;;;;;;4.52;100.00;96408.22;5029172;28;20881;-80
2023/12/31 08:32:39;;;;;;;2.60;2.20;;;;;;;4.54;100.00;96402.75;5042284;28;20451;-80
2023/12/31 08:35:06;;;;;;;2.45;2.25;;;;;;;4.57;100.00;96403.09;5038450;28;20407;-79
2023/12/31 08:37:32;;;;;;;2.37;2.17;;;;;;;4.62;100.00;96397.13;5030644;28;20395;-80
2023/12/31 08:39:58;;;;;;;3.28;2.20;;;;;;;4.66;100.00;96382.53;5029029;28;20469;-80
2023/12/31 08:42:26;;;;;;;2.30;2.10;;;;;;;4.71;100.00;96382.59;5026862;28;20411;-80
2023/12/31 08:44:52;;;;;;;2.40;2.20;;;;;;;4.80;100.00;96375.13;5028911;28;20416;-81
2023/12/31 08:47:18;;;;;;;2.77;2.20;;;;;;;4.86;100.00;96374.97;5027767;28;20388;-82
2023/12/31 08:49:44;;;;;;;2.80;2.50;;;;;;;4.93;100.00;96377.41;5036384;28;20484;-81
2023/12/31 08:52:11;;;;;;;2.43;2.23;;;;;;;4.98;100.00;96386.16;5034989;28;20501;-82
2023/12/31 08:54:37;;;;;;;2.35;2.15;;;;;;;5.04;100.00;96377.31;5030907;28;20399;-80
2023/12/31 08:57:03;;;;;;;2.43;2.23;;;;;;;5.10;100.00;96372.16;5025301;28;20464;-83
2023/12/31 08:59:31;;;;;;;2.72;2.38;;;;;;;5.16;100.00;96371.19;5036406;28;20399;-82
2023/12/31 09:01:57;;;;;;;2.10;1.90;;;;;;;5.22;100.00;96383.34;5045721;28;20402;-80
2023/12/31 09:04:23;;;;;;;2.63;2.30;;;;;;;5.27;100.00;96371.09;5027498;28;20472;-81
2023/12/31 09:06:49;;;;;;;2.30;2.10;;;;;;;5.34;100.00;96369.06;5026089;28;20426;-81
2023/12/31 09:09:15;;;;;;;2.70;2.45;;;;;;;5.41;100.00;96367.06;5045232;28;20391;-81
2023/12/31 09:11:41;;;;;;;2.45;2.20;;;;;;;5.50;100.00;96370.06;5026941;28;20415;-83
2023/12/31 09:14:08;;;;;;;3.65;2.72;;;;;;;5.56;100.00;96368.31;5027517;28;20395;-80
2023/12/31 09:16:35;;;;;;;3.08;2.70;;;;;;;5.68;100.00;96364.53;5033871;28;20400;-80
2023/12/31 09:19:02;;;;;;;2.47;2.28;;;;;;;5.79;100.00;96357.53;5029873;28;20413;-81
2023/12/31 09:21:28;;;;;;;2.33;2.13;;;;;;;5.90;100.00;96369.00;5025568;28;20756;-80
2023/12/31 09:23:54;;;;;;;2.60;2.07;;;;;;;5.96;100.00;96357.50;5026135;28;20440;-80
2023/12/31 09:26:21;;;;;;;2.50;2.30;;;;;;;5.96;100.00;96373.25;5022171;28;20424;-79
2023/12/31 09:28:49;;;;;;;2.47;2.28;;;;;;;5.92;100.00;96370.34;5027152;28;20419;-80
2023/12/31 09:31:16;;;;;;;2.53;2.25;;;;;;;5.89;100.00;96373.47;5026863;28;20408;-80
2023/12/31 09:33:43;;;;;;;2.35;2.15;;;;;;;5.87;100.00;96372.88;5021218;28;20428;-78
2023/12/31 09:36:09;;;;;;;2.40;2.20;;;;;;;5.88;100.00;96365.81;5026153;28;20439;-79
2023/12/31 09:38:36;;;;;;;1.98;1.88;;;;;;;5.90;100.00;96366.38;5022863;28;20502;-80
2023/12/31 09:41:05;;;;;;;2.17;1.98;;;;;;;5.96;100.00;96363.56;5038593;28;20407;-80
2023/12/31 09:43:33;;;;;;;2.20;2.00;;;;;;;6.06;100.00;96361.03;5030168;28;20415;-79
2023/12/31 09:45:59;;;;;;;2.22;2.00;;;;;;;6.21;100.00;96352.53;5048866;28;20480;-81
2023/12/31 09:48:26;;;;;;;2.60;1.95;;;;;;;6.34;100.00;96352.13;5051656;28;20474;-80
2023/12/31 09:50:54;;;;;;;3.00;1.90;;;;;;;6.47;100.00;96335.91;5042730;28;20411;-80
2023/12/31 09:53:22;;;;;;;1.90;1.80;;;;;;;6.65;100.00;96339.22;5050959;28;20513;-80
2023/12/31 09:55:50;;;;;;;1.90;1.80;;;;;;;6.81;100.00;96325.94;5056416;28;20995;-80
2023/12/31 09:58:18;;;;;;;2.00;1.80;;;;;;;7.03;100.00;96325.81;5032488;28;21090;-81
2023/12/31 10:00:44;;;;;;;2.10;1.90;;;;;;;7.26;100.00;96330.69;5025687;28;20484;-80
2023/12/31 10:03:12;;;;;;;1.55;1.45;;;;;;;7.53;100.00;96319.22;5025075;28;20476;-81
2023/12/31 10:05:41;;;;;;;1.73;1.63;;;;;;;7.74;100.00;96302.47;5033167;28;20541;-81
2023/12/31 10:08:09;;;;;;;2.47;1.85;;;;;;;7.87;100.00;96301.16;5033514;28;20404;-81
2023/12/31 10:10:36;;;;;;;2.10;1.85;;;;;;;7.90;100.00;96290.09;5024539;28;20393;-83
2023/12/31 10:13:03;;;;;;;1.85;1.70;;;;;;;7.82;100.00;96275.56;5038087;28;20403;-85
2023/12/31 10:15:29;;;;;;;1.98;1.88;;;;;;;7.67;100.00;96280.81;5029321;28;20415;-80
2023/12/31 10:17:59;;;;;;;3.40;2.45;;;;;;;7.40;100.00;96265.19;5022212;28;20447;-80
2023/12/31 10:20:25;;;;;;;4.13;2.50;;;;;;;7.23;100.00;96261.97;5017745;28;20408;-79
2023/12/31 10:22:51;;;;;;;2.33;2.13;;;;;;;7.17;100.00;96248.00;5031966;28;20411;-79
2023/12/31 10:25:22;;;;;;;2.60;2.00;;;;;;;7.09;100.00;96226.66;5022286;28;20432;-79
2023/12/31 10:27:48;;;;;;;2.78;2.30;;;;;;;7.02;100.00;96223.47;5019230;28;20440;-79
2023/12/31 10:30:15;;;;;;;2.78;2.30;;;;;;;7.03;100.00;96222.41;5031245;28;20397;-78
2023/12/31 10:32:44;;;;;;;2.80;2.00;;;;;;;7.07;100.00;96226.91;5016272;28;20710;-79
2023/12/31 10:35:10;;;;;;;3.08;2.00;;;;;;;7.12;100.00;96236.66;5016416;28;20430;-79
2023/12/31 10:37:36;;;;;;;3.50;2.47;;;;;;;7.16;100.00;96232.47;5014159;28;20408;-79
2023/12/31 10:40:21;;;;;;;3.13;2.45;;;;;;;7.24;100.00;96229.34;5010529;28;20456;-79
2023/12/31 10:42:55;;;;;;;2.20;2.00;;;;;;;7.31;100.00;96222.78;5014286;28;20796;-79
2023/12/31 10:45:22;;;;;;;2.27;2.07;;;;;;;7.38;100.00;96210.16;5015283;28;20753;-78
2023/12/31 10:47:51;;;;;;;2.55;2.10;;;;;;;7.47;100.00;96212.28;5021028;28;20416;-78
2023/12/31 10:50:22;;;;;;;2.00;1.80;;;;;;;7.55;100.00;96203.91;5021836;28;20431;-78
2023/12/31 10:52:50;;;;;;;2.00;1.80;;;;;;;7.63;100.00;96200.75;5022561;28;20397;-79
2023/12/31 10:55:18;;;;;;;1.80;1.70;;;;;;;7.71;100.00;96190.50;5015713;28;20397;-78
2023/12/31 10:57:45;;;;;;;1.85;1.70;;;;;;;7.78;100.00;96184.97;5008652;28;20402;-77
2023/12/31 11:00:13;;;;;;;2.00;1.80;;;;;;;7.82;100.00;96174.72;4997883;28;20894;-78
2023/12/31 11:02:41;;;;;;;2.10;1.80;;;;;;;7.84;100.00;96167.31;5012906;28;20394;-78
2023/12/31 11:05:09;;;;;;;1.70;1.60;;;;;;;7.87;100.00;96161.53;5017801;28;20417;-78
2023/12/31 11:07:35;;;;;;;2.75;1.60;;;;;;;7.94;100.00;96156.78;5020752;28;20817;-79
2023/12/31 11:10:02;;;;;;;1.95;1.80;;;;;;;7.99;100.00;96152.31;5024046;28;20440;-81
2023/12/31 11:12:29;;;;;;;1.73;1.63;;;;;;;8.00;100.00;96148.63;5025757;28;20546;-79
2023/12/31 11:15:01;;;;;;;1.77;1.67;;;;;;;7.98;100.00;96148.06;5026386;28;20455;-79
2023/12/31 11:17:49;;;;;;;2.05;1.85;;;;;;;7.93;100.00;96152.56;5022488;28;20503;-79
2023/12/31 11:20:30;;;;;;;1.80;1.70;;;;;;;7.88;100.00;96155.22;5021335;28;20433;-79
2023/12/31 11:23:06;;;;;;;4.13;2.20;;;;;;;7.82;100.00;96164.94;5023685;28;20396;-79
2023/12/31 11:25:32;;;;;;;2.92;2.35;;;;;;;7.76;100.00;96153.63;5025392;28;20443;-80
2023/12/31 11:28:00;;;;;;;2.75;2.15;;;;;;;7.73;100.00;96169.97;5025364;28;20396;-80
2023/12/31 11:30:47;;;;;;;2.40;2.20;;;;;;;7.67;100.00;96183.34;5022438;28;20407;-79
2023/12/31 11:33:16;;;;;;;2.08;1.88;;;;;;;7.62;100.00;96181.53;5023766;28;20409;-79